sensor_id;sensor_type;location;lat;lon;timestamp;pressure;altitude;pressure_sealevel;temperature;humidity
11041;BME280;5573;49.592;8.662;2023-01-29T00:02:23;101158.22;;;0.46;87.77
11041;BME280;5573;49.592;8.662;2023-01-29T00:04:53;101159.94;;;0.36;84.22
11041;BME280;5573;49.592;8.662;2023-01-29T00:07:24;101163.97;;;0.39;90.17
11041;BME280;5573;49.592;8.662;2023-01-29T00:09:52;101155.91;;;0.29;84.95
11041;BME280;5573;49.592;8.662;2023-01-29T00:12:20;101146.72;;;0.25;87.06
11041;BME280;5573;49.592;8.662;2023-01-29T00:14:47;101144.28;;;0.28;87.02
11041;BME280;5573;49.592;8.662;2023-01-29T00:17:15;101143.63;;;-0.03;89.82
11041;BME280;5573;49.592;8.662;2023-01-29T00:19:43;101144.16;;;-0.01;84.96
11041;BME280;5573;49.592;8.662;2023-01-29T00:22:12;101144.94;;;-0.01;83.43
11041;BME280;5573;49.592;8.662;2023-01-29T00:24:39;101150.66;;;-0.02;89.14
11041;BME280;5573;49.592;8.662;2023-01-29T00:27:09;101157.94;;;-0.03;90.90
11041;BME280;5573;49.592;8.662;2023-01-29T00:29:37;101158.47;;;-0.01;88.73
11041;BME280;5573;49.592;8.662;2023-01-29T00:32:04;101152.22;;;0.04;91.66
11041;BME280;5573;49.592;8.662;2023-01-29T00:34:35;101156.56;;;0.05;90.20
11041;BME280;5573;49.592;8.662;2023-01-29T00:37:03;101157.41;;;0.01;90.66
11041;BME280;5573;49.592;8.662;2023-01-29T00:39:35;101150.13;;;-0.04;87.66
11041;BME280;5573;49.592;8.662;2023-01-29T00:42:13;101146.00;;;0.04;88.75
11041;BME280;5573;49.592;8.662;2023-01-29T00:44:59;101145.78;;;0.00;91.56
11041;BME280;5573;49.592;8.662;2023-01-29T00:47:27;101150.13;;;-0.04;95.20
11041;BME280;5573;49.592;8.662;2023-01-29T00:49:59;101152.84;;;-0.09;99.74
11041;BME280;5573;49.592;8.662;2023-01-29T00:52:27;101157.22;;;-0.24;91.10
11041;BME280;5573;49.592;8.662;2023-01-29T00:54:58;101155.53;;;-0.09;94.39
11041;BME280;5573;49.592;8.662;2023-01-29T00:57:27;101156.06;;;-0.02;91.00
11041;BME280;5573;49.592;8.662;2023-01-29T00:59:55;101162.25;;;0.09;89.21
11041;BME280;5573;49.592;8.662;2023-01-29T01:02:23;101166.28;;;0.06;90.32
11041;BME280;5573;49.592;8.662;2023-01-29T01:05:10;101171.41;;;0.13;91.04
11041;BME280;5573;49.592;8.662;2023-01-29T01:07:39;101168.41;;;0.14;91.78
11041;BME280;5573;49.592;8.662;2023-01-29T01:10:12;101168.94;;;0.16;90.79
11041;BME280;5573;49.592;8.662;2023-01-29T01:12:51;101166.28;;;0.11;89.53
11041;BME280;5573;49.592;8.662;2023-01-29T01:15:21;101174.34;;;0.22;92.62
11041;BME280;5573;49.592;8.662;2023-01-29T01:17:53;101164.09;;;0.13;93.19
11041;BME280;5573;49.592;8.662;2023-01-29T01:20:22;101170.09;;;0.05;84.60
11041;BME280;5573;49.592;8.662;2023-01-29T01:22:50;101160.34;;;0.04;89.62
11041;BME280;5573;49.592;8.662;2023-01-29T01:25:19;101166.28;;;0.11;92.21
11041;BME280;5573;49.592;8.662;2023-01-29T01:27:47;101159.75;;;0.17;90.96
11041;BME280;5573;49.592;8.662;2023-01-29T01:30:15;101153.25;;;0.18;91.62
11041;BME280;5573;49.592;8.662;2023-01-29T01:32:43;101146.19;;;0.23;89.51
11041;BME280;5573;49.592;8.662;2023-01-29T01:35:11;101144.53;;;0.27;90.62
11041;BME280;5573;49.592;8.662;2023-01-29T01:37:41;101146.69;;;0.30;91.65
11041;BME280;5573;49.592;8.662;2023-01-29T01:40:13;101149.41;;;0.25;88.34
11041;BME280;5573;49.592;8.662;2023-01-29T01:42:48;101151.84;;;0.26;84.16
11041;BME280;5573;49.592;8.662;2023-01-29T01:45:23;101152.13;;;0.25;88.23
11041;BME280;5573;49.592;8.662;2023-01-29T01:47:54;101153.47;;;0.27;85.89
11041;BME280;5573;49.592;8.662;2023-01-29T01:50:27;101144.81;;;0.25;88.96
11041;BME280;5573;49.592;8.662;2023-01-29T01:53:01;101145.34;;;0.32;85.82
11041;BME280;5573;49.592;8.662;2023-01-29T01:55:31;101148.00;;;0.37;88.27
11041;BME280;5573;49.592;8.662;2023-01-29T01:58:05;101151.06;;;0.26;88.29
11041;BME280;5573;49.592;8.662;2023-01-29T02:00:34;101144.28;;;0.28;90.55
11041;BME280;5573;49.592;8.662;2023-01-29T02:03:03;101147.06;;;0.13;88.82
11041;BME280;5573;49.592;8.662;2023-01-29T02:05:49;101135.63;;;0.21;89.29
11041;BME280;5573;49.592;8.662;2023-01-29T02:08:41;101126.72;;;0.20;92.11
11041;BME280;5573;49.592;8.662;2023-01-29T02:11:29;101129.41;;;0.20;88.33
11041;BME280;5573;49.592;8.662;2023-01-29T02:13:58;101126.75;;;0.15;87.50
11041;BME280;5573;49.592;8.662;2023-01-29T02:16:26;101123.53;;;0.13;88.12
11041;BME280;5573;49.592;8.662;2023-01-29T02:18:54;101128.97;;;0.03;91.39
11041;BME280;5573;49.592;8.662;2023-01-29T02:21:35;101121.75;;;-0.12;87.61
11041;BME280;5573;49.592;8.662;2023-01-29T02:24:21;101112.47;;;-0.01;87.28
11041;BME280;5573;49.592;8.662;2023-01-29T02:27:02;101110.53;;;0.10;85.50
11041;BME280;5573;49.592;8.662;2023-01-29T02:29:43;101112.19;;;0.06;87.49
11041;BME280;5573;49.592;8.662;2023-01-29T02:32:20;101101.19;;;-0.13;84.04
11041;BME280;5573;49.592;8.662;2023-01-29T02:34:59;101106.59;;;-0.13;78.80
11041;BME280;5573;49.592;8.662;2023-01-29T02:37:54;101100.41;;;-0.24;83.24
11041;BME280;5573;49.592;8.662;2023-01-29T02:40:28;101095.63;;;-0.37;90.48
11041;BME280;5573;49.592;8.662;2023-01-29T02:43:05;101098.84;;;-0.35;93.30
11041;BME280;5573;49.592;8.662;2023-01-29T02:45:44;101098.06;;;-0.41;95.31
11041;BME280;5573;49.592;8.662;2023-01-29T02:48:17;101099.72;;;-0.55;92.46
11041;BME280;5573;49.592;8.662;2023-01-29T02:50:49;101101.13;;;-0.63;92.57
11041;BME280;5573;49.592;8.662;2023-01-29T02:53:25;101096.78;;;-0.64;93.80
11041;BME280;5573;49.592;8.662;2023-01-29T02:55:57;101101.69;;;-0.71;93.63
11041;BME280;5573;49.592;8.662;2023-01-29T02:58:30;101101.69;;;-0.71;95.82
11041;BME280;5573;49.592;8.662;2023-01-29T03:01:05;101109.78;;;-0.71;97.21
11041;BME280;5573;49.592;8.662;2023-01-29T03:03:39;101107.09;;;-0.71;99.87
11041;BME280;5573;49.592;8.662;2023-01-29T03:06:15;101108.72;;;-0.75;99.52
11041;BME280;5573;49.592;8.662;2023-01-29T03:08:49;101107.13;;;-0.86;99.32
11041;BME280;5573;49.592;8.662;2023-01-29T03:11:20;101107.66;;;-0.89;100.00
11041;BME280;5573;49.592;8.662;2023-01-29T03:13:52;101110.34;;;-0.89;99.54
11041;BME280;5573;49.592;8.662;2023-01-29T03:16:26;101114.97;;;-0.90;98.55
11041;BME280;5573;49.592;8.662;2023-01-29T03:19:00;101084.19;;;-1.09;99.89
11041;BME280;5573;49.592;8.662;2023-01-29T03:21:33;101124.94;;;-0.80;96.90
11041;BME280;5573;49.592;8.662;2023-01-29T03:24:25;101123.34;;;-1.02;98.99
11041;BME280;5573;49.592;8.662;2023-01-29T03:27:17;101124.16;;;-1.21;98.94
11041;BME280;5573;49.592;8.662;2023-01-29T03:30:07;101120.94;;;-1.24;97.91
11041;BME280;5573;49.592;8.662;2023-01-29T03:33:08;101138.47;;;-1.00;96.68
11041;BME280;5573;49.592;8.662;2023-01-29T03:35:42;101132.50;;;-0.97;98.28
11041;BME280;5573;49.592;8.662;2023-01-29T03:38:14;101133.31;;;-0.87;100.00
11041;BME280;5573;49.592;8.662;2023-01-29T03:40:45;101134.13;;;-0.91;100.00
11041;BME280;5573;49.592;8.662;2023-01-29T03:43:25;101137.09;;;-0.83;100.00
11041;BME280;5573;49.592;8.662;2023-01-29T03:46:02;101135.75;;;-0.80;100.00
11041;BME280;5573;49.592;8.662;2023-01-29T03:48:35;101123.34;;;-0.86;100.00
11041;BME280;5573;49.592;8.662;2023-01-29T03:51:14;101126.03;;;-0.86;100.00
11041;BME280;5573;49.592;8.662;2023-01-29T03:53:49;101145.19;;;-0.77;100.00
11041;BME280;5573;49.592;8.662;2023-01-29T03:56:26;101140.34;;;-0.91;100.00
11041;BME280;5573;49.592;8.662;2023-01-29T03:59:01;101135.75;;;-0.90;100.00
11041;BME280;5573;49.592;8.662;2023-01-29T04:01:59;101148.97;;;-0.78;99.09
11041;BME280;5573;49.592;8.662;2023-01-29T04:04:31;101152.75;;;-0.74;100.00
11041;BME280;5573;49.592;8.662;2023-01-29T04:07:04;101160.84;;;-0.74;95.90
11041;BME280;5573;49.592;8.662;2023-01-29T04:09:39;101145.72;;;-0.70;99.68
11041;BME280;5573;49.592;8.662;2023-01-29T04:12:10;101145.72;;;-0.65;97.32
11041;BME280;5573;49.592;8.662;2023-01-29T04:14:42;101146.25;;;-0.63;100.00
11041;BME280;5573;49.592;8.662;2023-01-29T04:17:14;101143.81;;;-0.54;100.00
11041;BME280;5573;49.592;8.662;2023-01-29T04:19:52;101140.00;;;-0.53;100.00
11041;BME280;5573;49.592;8.662;2023-01-29T04:22:23;101129.75;;;-0.56;100.00
11041;BME280;5573;49.592;8.662;2023-01-29T04:24:52;101117.28;;;-0.47;100.00
11041;BME280;5573;49.592;8.662;2023-01-29T04:27:25;101126.81;;;-0.65;96.69
11041;BME280;5573;49.592;8.662;2023-01-29T04:30:06;101120.59;;;-0.71;95.68
11041;BME280;5573;49.592;8.662;2023-01-29T04:32:49;101129.53;;;-0.80;97.04
11041;BME280;5573;49.592;8.662;2023-01-29T04:35:26;101137.38;;;-0.89;98.89
11041;BME280;5573;49.592;8.662;2023-01-29T04:38:06;101135.47;;;-0.78;100.00
11041;BME280;5573;49.592;8.662;2023-01-29T04:40:46;101133.59;;;-0.78;99.74
11041;BME280;5573;49.592;8.662;2023-01-29T04:43:22;101132.47;;;-0.72;97.65
11041;BME280;5573;49.592;8.662;2023-01-29T04:46:02;101120.56;;;-0.66;97.95
11041;BME280;5573;49.592;8.662;2023-01-29T04:48:43;101118.41;;;-0.58;95.62
11041;BME280;5573;49.592;8.662;2023-01-29T04:51:20;101105.75;;;-0.73;96.87
11041;BME280;5573;49.592;8.662;2023-01-29T04:53:55;101090.34;;;-0.78;98.12
11041;BME280;5573;49.592;8.662;2023-01-29T04:56:28;101087.13;;;-0.80;100.00
11041;BME280;5573;49.592;8.662;2023-01-29T04:59:03;101093.06;;;-0.93;100.00
11041;BME280;5573;49.592;8.662;2023-01-29T05:01:33;101102.81;;;-1.03;100.00
11041;BME280;5573;49.592;8.662;2023-01-29T05:04:05;101102.81;;;-1.13;98.34
11041;BME280;5573;49.592;8.662;2023-01-29T05:06:36;101085.81;;;-1.24;99.70
11041;BME280;5573;49.592;8.662;2023-01-29T05:09:05;101085.00;;;-1.29;100.00
11041;BME280;5573;49.592;8.662;2023-01-29T05:11:35;101091.22;;;-1.44;100.00
11041;BME280;5573;49.592;8.662;2023-01-29T05:14:06;101105.00;;;-1.40;100.00
11041;BME280;5573;49.592;8.662;2023-01-29T05:16:39;101096.34;;;-1.63;100.00
11041;BME280;5573;49.592;8.662;2023-01-29T05:19:09;101112.53;;;-1.68;100.00
11041;BME280;5573;49.592;8.662;2023-01-29T05:21:42;101100.34;;;-1.91;100.00
11041;BME280;5573;49.592;8.662;2023-01-29T05:24:13;101118.97;;;-1.79;100.00
11041;BME280;5573;49.592;8.662;2023-01-29T05:26:42;101114.41;;;-1.79;100.00
11041;BME280;5573;49.592;8.662;2023-01-29T05:29:28;101125.19;;;-1.79;100.00
11041;BME280;5573;49.592;8.662;2023-01-29T05:31:55;101134.09;;;-1.78;100.00
11041;BME280;5573;49.592;8.662;2023-01-29T05:34:23;101116.81;;;-1.82;100.00
11041;BME280;5573;49.592;8.662;2023-01-29T05:36:52;101137.38;;;-1.56;100.00
11041;BME280;5573;49.592;8.662;2023-01-29T05:39:20;101137.91;;;-1.49;100.00
11041;BME280;5573;49.592;8.662;2023-01-29T05:41:48;101124.41;;;-1.49;100.00
11041;BME280;5573;49.592;8.662;2023-01-29T05:44:15;101129.28;;;-1.56;100.00
11041;BME280;5573;49.592;8.662;2023-01-29T05:46:43;101120.94;;;-1.39;100.00
11041;BME280;5573;49.592;8.662;2023-01-29T05:49:11;101118.75;;;-1.32;100.00
11041;BME280;5573;49.592;8.662;2023-01-29T05:51:39;101112.03;;;-1.24;100.00
11041;BME280;5573;49.592;8.662;2023-01-29T05:54:10;101103.09;;;-1.19;100.00
11041;BME280;5573;49.592;8.662;2023-01-29T05:56:37;101102.03;;;-1.34;100.00
11041;BME280;5573;49.592;8.662;2023-01-29T05:59:05;101108.50;;;-1.25;100.00
11041;BME280;5573;49.592;8.662;2023-01-29T06:01:33;101109.88;;;-1.22;100.00
11041;BME280;5573;49.592;8.662;2023-01-29T06:04:01;101110.94;;;-1.23;99.53
11041;BME280;5573;49.592;8.662;2023-01-29T06:06:29;101110.66;;;-1.11;99.23
11041;BME280;5573;49.592;8.662;2023-01-29T06:08:57;101116.84;;;-1.06;99.34
11041;BME280;5573;49.592;8.662;2023-01-29T06:11:26;101122.00;;;-0.99;100.00
11041;BME280;5573;49.592;8.662;2023-01-29T06:13:53;101125.25;;;-0.97;100.00
11041;BME280;5573;49.592;8.662;2023-01-29T06:16:21;101136.03;;;-0.97;100.00
11041;BME280;5573;49.592;8.662;2023-01-29T06:18:49;101135.78;;;-1.00;100.00
11041;BME280;5573;49.592;8.662;2023-01-29T06:21:16;101139.81;;;-0.88;100.00
11041;BME280;5573;49.592;8.662;2023-01-29T06:23:45;101133.84;;;-0.74;100.00
11041;BME280;5573;49.592;8.662;2023-01-29T06:26:14;101129.78;;;-0.77;99.77
11041;BME280;5573;49.592;8.662;2023-01-29T06:28:43;101128.44;;;-0.85;99.58
11041;BME280;5573;49.592;8.662;2023-01-29T06:31:11;101116.03;;;-0.91;100.00
11041;BME280;5573;49.592;8.662;2023-01-29T06:33:59;101099.03;;;-0.96;100.00
11041;BME280;5573;49.592;8.662;2023-01-29T06:36:26;101115.22;;;-0.86;98.25
11041;BME280;5573;49.592;8.662;2023-01-29T06:38:54;101108.72;;;-0.85;99.14
11041;BME280;5573;49.592;8.662;2023-01-29T06:41:22;101109.31;;;-1.09;98.56
11041;BME280;5573;49.592;8.662;2023-01-29T06:43:52;101106.34;;;-1.07;99.01
11041;BME280;5573;49.592;8.662;2023-01-29T06:46:20;101100.41;;;-0.99;96.82
11041;BME280;5573;49.592;8.662;2023-01-29T06:48:47;101100.91;;;-1.02;98.96
11041;BME280;5573;49.592;8.662;2023-01-29T06:51:15;101098.22;;;-1.12;99.29
11041;BME280;5573;49.592;8.662;2023-01-29T06:53:43;101106.88;;;-1.10;97.69
11041;BME280;5573;49.592;8.662;2023-01-29T06:56:12;101115.78;;;-1.05;98.31
11041;BME280;5573;49.592;8.662;2023-01-29T06:58:39;101115.75;;;-0.99;96.07
11041;BME280;5573;49.592;8.662;2023-01-29T07:01:10;101122.81;;;-1.09;96.17
11041;BME280;5573;49.592;8.662;2023-01-29T07:03:58;101129.00;;;-1.08;95.63
11041;BME280;5573;49.592;8.662;2023-01-29T07:06:27;101127.13;;;-1.03;97.73
11041;BME280;5573;49.592;8.662;2023-01-29T07:08:55;101126.84;;;-0.96;99.82
11041;BME280;5573;49.592;8.662;2023-01-29T07:11:23;101124.41;;;-0.97;99.71
11041;BME280;5573;49.592;8.662;2023-01-29T07:13:50;101115.25;;;-0.96;99.47
11041;BME280;5573;49.592;8.662;2023-01-29T07:16:19;101117.94;;;-0.96;98.15
11041;BME280;5573;49.592;8.662;2023-01-29T07:18:47;101128.19;;;-0.93;99.46
11041;BME280;5573;49.592;8.662;2023-01-29T07:21:16;101119.25;;;-0.89;99.58
11041;BME280;5573;49.592;8.662;2023-01-29T07:23:44;101115.25;;;-0.96;100.00
11041;BME280;5573;49.592;8.662;2023-01-29T07:26:12;101123.34;;;-1.07;100.00
11041;BME280;5573;49.592;8.662;2023-01-29T07:28:40;101118.22;;;-1.13;100.00
11041;BME280;5573;49.592;8.662;2023-01-29T07:31:10;101129.03;;;-1.24;100.00
11041;BME280;5573;49.592;8.662;2023-01-29T07:33:41;101130.38;;;-1.36;100.00
11041;BME280;5573;49.592;8.662;2023-01-29T07:36:10;101121.72;;;-1.38;100.00
11041;BME280;5573;49.592;8.662;2023-01-29T07:38:38;101132.00;;;-1.40;100.00
11041;BME280;5573;49.592;8.662;2023-01-29T07:41:06;101134.69;;;-1.40;100.00
11041;BME280;5573;49.592;8.662;2023-01-29T07:43:33;101134.16;;;-1.42;100.00
11041;BME280;5573;49.592;8.662;2023-01-29T07:46:02;101132.53;;;-1.54;100.00
11041;BME280;5573;49.592;8.662;2023-01-29T07:48:30;101147.09;;;-1.60;100.00
11041;BME280;5573;49.592;8.662;2023-01-29T07:50:59;101150.84;;;-1.61;100.00
11041;BME280;5573;49.592;8.662;2023-01-29T07:53:28;101153.25;;;-1.65;100.00
11041;BME280;5573;49.592;8.662;2023-01-29T07:55:56;101161.09;;;-1.68;100.00
11041;BME280;5573;49.592;8.662;2023-01-29T07:58:24;101160.53;;;-1.65;100.00
11041;BME280;5573;49.592;8.662;2023-01-29T08:00:51;101151.41;;;-1.64;100.00
11041;BME280;5573;49.592;8.662;2023-01-29T08:03:19;101154.41;;;-1.45;100.00
11041;BME280;5573;49.592;8.662;2023-01-29T08:05:47;101164.41;;;-1.30;100.00
11041;BME280;5573;49.592;8.662;2023-01-29T08:08:16;101162.50;;;-1.30;100.00
11041;BME280;5573;49.592;8.662;2023-01-29T08:10:44;101163.31;;;-1.24;100.00
11041;BME280;5573;49.592;8.662;2023-01-29T08:13:12;101153.88;;;-1.11;100.00
11041;BME280;5573;49.592;8.662;2023-01-29T08:15:42;101147.94;;;-1.13;100.00
11041;BME280;5573;49.592;8.662;2023-01-29T08:18:11;101151.97;;;-0.90;100.00
11041;BME280;5573;49.592;8.662;2023-01-29T08:20:39;101154.38;;;-0.78;100.00
11041;BME280;5573;49.592;8.662;2023-01-29T08:23:10;101150.84;;;-0.58;100.00
11041;BME280;5573;49.592;8.662;2023-01-29T08:25:40;101140.78;;;-0.43;98.49
11041;BME280;5573;49.592;8.662;2023-01-29T08:28:09;101156.72;;;-0.31;94.64
11041;BME280;5573;49.592;8.662;2023-01-29T08:30:38;101157.50;;;-0.25;94.82
11041;BME280;5573;49.592;8.662;2023-01-29T08:33:06;101159.91;;;-0.18;91.63
11041;BME280;5573;49.592;8.662;2023-01-29T08:35:33;101164.22;;;-0.12;87.68
11041;BME280;5573;49.592;8.662;2023-01-29T08:38:02;101164.19;;;-0.07;86.72
11041;BME280;5573;49.592;8.662;2023-01-29T08:40:32;101172.88;;;-0.15;89.30
11041;BME280;5573;49.592;8.662;2023-01-29T08:43:03;101172.94;;;-0.31;89.92
11041;BME280;5573;49.592;8.662;2023-01-29T08:45:36;101184.00;;;-0.32;89.40
11041;BME280;5573;49.592;8.662;2023-01-29T08:48:04;101187.81;;;-0.33;88.46
11041;BME280;5573;49.592;8.662;2023-01-29T08:50:33;101189.13;;;-0.26;86.54
11041;BME280;5573;49.592;8.662;2023-01-29T08:53:02;101178.34;;;-0.31;86.00
11041;BME280;5573;49.592;8.662;2023-01-29T08:55:30;101106.00;;;-0.70;86.42
11041;BME280;5573;49.592;8.662;2023-01-29T08:57:57;101149.63;;;-0.16;85.96
11041;BME280;5573;49.592;8.662;2023-01-29T09:00:26;101137.94;;;-0.02;84.85
11041;BME280;5573;49.592;8.662;2023-01-29T09:02:54;101116.25;;;0.04;82.26
11041;BME280;5573;49.592;8.662;2023-01-29T09:05:22;101104.00;;;0.16;82.00
11041;BME280;5573;49.592;8.662;2023-01-29T09:07:50;101102.50;;;0.45;81.03
11041;BME280;5573;49.592;8.662;2023-01-29T09:10:19;101108.84;;;0.64;77.52
11041;BME280;5573;49.592;8.662;2023-01-29T09:12:47;101111.66;;;0.83;78.64
11041;BME280;5573;49.592;8.662;2023-01-29T09:15:15;101113.41;;;0.98;75.86
11041;BME280;5573;49.592;8.662;2023-01-29T09:17:45;101114.94;;;1.09;74.77
11041;BME280;5573;49.592;8.662;2023-01-29T09:20:15;101123.22;;;1.23;73.48
11041;BME280;5573;49.592;8.662;2023-01-29T09:22:43;101116.03;;;1.08;71.39
11041;BME280;5573;49.592;8.662;2023-01-29T09:25:11;101133.66;;;1.35;69.33
11041;BME280;5573;49.592;8.662;2023-01-29T09:27:40;101095.75;;;1.06;71.53
11041;BME280;5573;49.592;8.662;2023-01-29T09:30:09;101127.97;;;1.60;69.10
11041;BME280;5573;49.592;8.662;2023-01-29T09:32:37;101149.06;;;1.88;66.10
11041;BME280;5573;49.592;8.662;2023-01-29T09:35:22;101155.47;;;1.97;66.33
11041;BME280;5573;49.592;8.662;2023-01-29T09:37:50;101155.22;;;1.93;68.73
11041;BME280;5573;49.592;8.662;2023-01-29T09:40:23;101164.09;;;1.80;64.39
11041;BME280;5573;49.592;8.662;2023-01-29T09:42:56;101166.44;;;1.87;65.49
11041;BME280;5573;49.592;8.662;2023-01-29T09:45:26;101160.38;;;1.71;65.54
11041;BME280;5573;49.592;8.662;2023-01-29T09:47:56;101151.44;;;1.70;65.35
11041;BME280;5573;49.592;8.662;2023-01-29T09:50:29;101169.34;;;1.71;65.15
11041;BME280;5573;49.592;8.662;2023-01-29T09:53:01;101168.25;;;1.72;67.44
11041;BME280;5573;49.592;8.662;2023-01-29T09:55:33;101173.16;;;1.41;65.83
11041;BME280;5573;49.592;8.662;2023-01-29T09:58:06;101181.97;;;1.57;66.74
11041;BME280;5573;49.592;8.662;2023-01-29T10:00:43;101179.38;;;1.71;68.80
11041;BME280;5573;49.592;8.662;2023-01-29T10:03:23;101186.78;;;1.65;67.10
11041;BME280;5573;49.592;8.662;2023-01-29T10:06:08;101191.72;;;1.58;68.01
11041;BME280;5573;49.592;8.662;2023-01-29T10:08:57;101195.47;;;1.62;71.07
11041;BME280;5573;49.592;8.662;2023-01-29T10:11:37;101195.88;;;1.74;71.75
11041;BME280;5573;49.592;8.662;2023-01-29T10:14:14;101200.13;;;1.86;69.74
11041;BME280;5573;49.592;8.662;2023-01-29T10:16:53;101191.47;;;1.83;69.60
11041;BME280;5573;49.592;8.662;2023-01-29T10:19:38;101180.97;;;1.96;71.13
11041;BME280;5573;49.592;8.662;2023-01-29T10:22:33;101176.06;;;1.98;68.63
11041;BME280;5573;49.592;8.662;2023-01-29T10:25:05;101172.28;;;1.99;67.89
11041;BME280;5573;49.592;8.662;2023-01-29T10:27:35;101173.13;;;1.70;69.06
11041;BME280;5573;49.592;8.662;2023-01-29T10:30:07;101165.13;;;1.84;69.28
11041;BME280;5573;49.592;8.662;2023-01-29T10:32:36;101153.53;;;1.78;68.51
11041;BME280;5573;49.592;8.662;2023-01-29T10:35:12;101155.88;;;1.85;66.01
11041;BME280;5573;49.592;8.662;2023-01-29T10:37:45;101146.94;;;1.85;66.27
11041;BME280;5573;49.592;8.662;2023-01-29T10:40:19;101140.75;;;1.79;65.58
11041;BME280;5573;49.592;8.662;2023-01-29T10:42:51;101139.91;;;1.83;69.75
11041;BME280;5573;49.592;8.662;2023-01-29T10:45:30;101137.84;;;1.75;66.73
11041;BME280;5573;49.592;8.662;2023-01-29T10:48:34;101136.91;;;1.61;66.33
11041;BME280;5573;49.592;8.662;2023-01-29T10:51:10;101124.63;;;1.69;67.69
11041;BME280;5573;49.592;8.662;2023-01-29T10:53:56;101121.25;;;1.77;67.47
11041;BME280;5573;49.592;8.662;2023-01-29T10:56:43;101121.44;;;1.86;66.91
11041;BME280;5573;49.592;8.662;2023-01-29T10:59:29;101105.41;;;1.65;65.65
11041;BME280;5573;49.592;8.662;2023-01-29T11:02:12;101106.44;;;1.69;69.83
11041;BME280;5573;49.592;8.662;2023-01-29T11:04:41;101098.81;;;1.71;69.61
11041;BME280;5573;49.592;8.662;2023-01-29T11:07:09;101095.97;;;1.81;67.70
11041;BME280;5573;49.592;8.662;2023-01-29T11:09:42;101094.88;;;1.82;67.50
11041;BME280;5573;49.592;8.662;2023-01-29T11:12:13;101105.63;;;1.88;67.70
11041;BME280;5573;49.592;8.662;2023-01-29T11:14:44;101107.19;;;1.94;69.06
11041;BME280;5573;49.592;8.662;2023-01-29T11:17:14;101104.44;;;1.99;65.91
11041;BME280;5573;49.592;8.662;2023-01-29T11:19:44;101089.75;;;2.00;68.90
11041;BME280;5573;49.592;8.662;2023-01-29T11:22:13;101080.91;;;1.70;69.19
11041;BME280;5573;49.592;8.662;2023-01-29T11:24:43;101090.47;;;1.87;67.72
11041;BME280;5573;49.592;8.662;2023-01-29T11:27:16;101083.22;;;1.82;70.17
11041;BME280;5573;49.592;8.662;2023-01-29T11:29:49;101080.47;;;1.63;69.62
11041;BME280;5573;49.592;8.662;2023-01-29T11:32:24;101065.59;;;1.60;71.92
11041;BME280;5573;49.592;8.662;2023-01-29T11:34:58;101062.50;;;1.67;71.19
11041;BME280;5573;49.592;8.662;2023-01-29T11:37:32;101051.06;;;1.70;68.03
11041;BME280;5573;49.592;8.662;2023-01-29T11:40:08;101050.72;;;1.77;70.29
11041;BME280;5573;49.592;8.662;2023-01-29T11:43:15;101038.00;;;1.53;67.92
11041;BME280;5573;49.592;8.662;2023-01-29T11:45:45;101014.03;;;1.41;70.79
11041;BME280;5573;49.592;8.662;2023-01-29T11:48:15;101031.56;;;1.68;71.45
11041;BME280;5573;49.592;8.662;2023-01-29T11:50:50;101019.47;;;1.60;71.38
11041;BME280;5573;49.592;8.662;2023-01-29T11:53:31;101025.19;;;1.59;72.79
11041;BME280;5573;49.592;8.662;2023-01-29T11:56:04;101009.16;;;1.62;69.74
11041;BME280;5573;49.592;8.662;2023-01-29T11:58:33;101016.97;;;1.83;69.31
11041;BME280;5573;49.592;8.662;2023-01-29T12:01:02;101016.09;;;1.88;69.35
11041;BME280;5573;49.592;8.662;2023-01-29T12:03:34;101016.31;;;1.53;70.70
11041;BME280;5573;49.592;8.662;2023-01-29T12:06:06;101008.03;;;1.82;67.95
11041;BME280;5573;49.592;8.662;2023-01-29T12:08:36;101002.75;;;1.91;68.64
11041;BME280;5573;49.592;8.662;2023-01-29T12:11:11;100991.38;;;2.08;67.61
11041;BME280;5573;49.592;8.662;2023-01-29T12:13:40;100985.88;;;2.13;66.25
11041;BME280;5573;49.592;8.662;2023-01-29T12:16:18;100980.53;;;2.08;67.20
11041;BME280;5573;49.592;8.662;2023-01-29T12:18:50;100981.44;;;2.36;67.92
11041;BME280;5573;49.592;8.662;2023-01-29T12:21:30;100977.66;;;2.51;64.51
11041;BME280;5573;49.592;8.662;2023-01-29T12:24:02;100974.16;;;2.78;64.84
11041;BME280;5573;49.592;8.662;2023-01-29T12:26:38;100977.25;;;2.58;64.91
11041;BME280;5573;49.592;8.662;2023-01-29T12:29:20;100972.28;;;2.46;67.11
11041;BME280;5573;49.592;8.662;2023-01-29T12:31:56;100970.28;;;2.52;65.38
11041;BME280;5573;49.592;8.662;2023-01-29T12:34:34;100978.22;;;2.48;65.16
11041;BME280;5573;49.592;8.662;2023-01-29T12:37:12;100978.78;;;2.64;64.07
11041;BME280;5573;49.592;8.662;2023-01-29T12:39:42;100986.19;;;2.58;63.47
11041;BME280;5573;49.592;8.662;2023-01-29T12:42:13;100976.13;;;2.59;65.38
11041;BME280;5573;49.592;8.662;2023-01-29T12:44:45;100979.50;;;2.83;64.94
11041;BME280;5573;49.592;8.662;2023-01-29T12:47:19;100974.25;;;2.59;64.17
11041;BME280;5573;49.592;8.662;2023-01-29T12:49:51;100965.84;;;2.42;67.70
11041;BME280;5573;49.592;8.662;2023-01-29T12:52:24;100965.09;;;2.69;65.50
11041;BME280;5573;49.592;8.662;2023-01-29T12:54:57;100965.63;;;2.85;65.00
11041;BME280;5573;49.592;8.662;2023-01-29T12:57:37;100947.88;;;2.74;65.44
11041;BME280;5573;49.592;8.662;2023-01-29T13:00:12;100886.00;;;2.43;65.10
11041;BME280;5573;49.592;8.662;2023-01-29T13:02:46;100936.91;;;2.51;66.35
11041;BME280;5573;49.592;8.662;2023-01-29T13:05:19;100936.22;;;2.59;67.41
11041;BME280;5573;49.592;8.662;2023-01-29T13:07:55;100938.22;;;2.68;68.23
11041;BME280;5573;49.592;8.662;2023-01-29T13:10:27;100933.25;;;2.42;68.36
11041;BME280;5573;49.592;8.662;2023-01-29T13:12:59;100928.03;;;2.46;66.47
11041;BME280;5573;49.592;8.662;2023-01-29T13:15:32;100920.94;;;2.17;64.67
11041;BME280;5573;49.592;8.662;2023-01-29T13:18:19;100926.16;;;2.13;67.33
11041;BME280;5573;49.592;8.662;2023-01-29T13:20:50;100919.41;;;2.11;65.16
11041;BME280;5573;49.592;8.662;2023-01-29T13:23:20;100915.03;;;1.96;66.70
11041;BME280;5573;49.592;8.662;2023-01-29T13:25:50;100911.47;;;2.14;69.77
11041;BME280;5573;49.592;8.662;2023-01-29T13:28:22;100908.47;;;2.16;70.57
11041;BME280;5573;49.592;8.662;2023-01-29T13:31:10;100906.72;;;2.39;67.94
11041;BME280;5573;49.592;8.662;2023-01-29T13:33:39;100913.34;;;2.47;64.12